Tiempo atmosférico en la estación meteorológica de Almería Aeropuerto, Almería (21 m.)

Fecha
DESCASC
Temp. máxima en grados centígrados (hora)
DESCASC
Temp. mínima en grados centígrados (hora)
DESCASC
Temp. media en grados centígrados
DESCASC
Racha de viento máxima en m/sg (hora)
DESCASC
Velocidad máxima media en intervalos de 10 minutos(hora)
DESCASC
Precipitaciones diarias en mm
DESCASC
Precipitaciones de 00:00 a 06:00 en mm
DESCASC
Precipitaciones de 06:00 a 12:00 en mm
DESCASC
Precipitaciones de 12:00 a 18:00 en mm
DESCASC
Precipitaciones de 18:00 a 24:00 en mm
DESCASC
10-12-2017 19.9 (15:20) 9.4 (08:10) 14.6 20 (22:20) 13.33 (22:10) 0 0 0 0 0
09-12-2017 19.3 (15:30) 9.6 (04:20) 14.4 6.67 (23:20) 5 (23:30) 0 0 0 0 0
08-12-2017 16.9 (14:20) 7 (06:50) 11.9 9.17 (12:30) 6.94 (12:30) 0 0 0 0 0
07-12-2017 17.3 (13:10) 7.3 (00:00) 12.3 10.83 (02:10) 8.06 (05:50) 0 0 0 0 0
06-12-2017 18.7 (15:10) 7.8 (00:00) 13.3 13.89 (08:30) 9.17 (06:50) 0 0 0 0 0
05-12-2017 17.4 (14:30) 7.6 (00:00) 12.5 12.5 (08:00) 8.61 (05:20) 0 0 0 0 0
04-12-2017 16.4 (14:30) 5.2 (00:00) 10.8 10.28 (08:40) 7.5 (08:20) -- 0 0 -- 0
03-12-2017 15.5 (15:00) 7.3 (00:00) 11.4 15 (06:20) 10 (06:50) 0 0 0 0 0
02-12-2017 16.4 (13:40) 8.5 (00:00) 12.4 16.11 (04:20) 11.11 (04:40) 0 0 0 0 0
01-12-2017 15.8 (11:50) 7.5 (00:00) 11.7 12.5 (18:50) 8.61 (13:40) 0 0 0 0 0
30-11-2017 15.3 (04:00) 9.9 (00:00) 12.6 12.5 (13:00) 9.17 (13:10) 11.9 0 2.8 7.9 1.2
29-11-2017 17.7 (18:00) 13.5 (00:00) 15.6 15.28 (10:20) 10.83 (09:30) 5.5 0 0.3 0.7 4.5
28-11-2017 19.1 (14:40) 12.5 (00:00) 15.8 -- (--) -- (--) 0 0 0 0 0
27-11-2017 20 (14:30) 14.4 (00:00) 17.2 8.33 (12:30) 5.56 (12:30) 0 0 0 0 0
26-11-2017 21.7 (13:20) 14.7 (00:00) 18.2 13.33 (14:10) 9.44 (13:10) 0 0 0 0 0
25-11-2017 19.9 (16:30) 10.5 (00:00) 15.2 6.11 (09:20) 3.89 (06:30) 0 0 0 0 0
24-11-2017 19.9 (14:20) 10.3 (00:00) 15.1 4.72 (07:40) 3.89 (07:50) 0 0 0 0 0
23-11-2017 19.3 (15:20) 9.5 (00:00) 14.4 6.67 (01:30) 4.72 (01:50) 0 0 0 0 0
22-11-2017 19.5 (11:20) 8.9 (00:00) 14.2 10.28 (06:40) 7.5 (06:40) 0 0 0 0 0
21-11-2017 20.1 (16:10) 10.5 (00:00) 15.3 8.89 (08:00) 6.39 (07:10) 0 0 0 0 0
20-11-2017 22.5 (12:10) 9.5 (00:00) 16 7.78 (23:30) 5.28 (23:50) 0 0 0 0 0
19-11-2017 22.6 (14:10) 11.5 (00:00) 17.1 8.89 (07:10) 5.83 (06:30) 0 0 0 0 0
18-11-2017 20 (14:30) 10.4 (00:00) 15.2 8.89 (09:10) 5 (09:00) 0 0 0 0 0
17-11-2017 19.8 (14:00) 10.6 (00:00) 15.2 8.33 (20:00) 5 (07:30) 0 0 0 0 0
16-11-2017 19.3 (14:50) 9.8 (00:00) 14.5 8.33 (07:50) 5.83 (07:50) 0 0 0 0 0
15-11-2017 20.1 (14:20) 10.5 (00:00) 15.3 11.39 (04:20) 8.06 (04:20) 0 0 0 0 0

Gráficas

Temp. máximas Temp. mínimas Temp. medias Precipitaciones Rachas de viento máximas Velocidades máximas media en intervalos de 10 minutos

Datos horarios

Fecha y hora oficial Temperatura (ºC) Velocidad del viento (km/h) Dirección del viento Racha (km/h) Dirección de racha Precipitación (mm) Presión (hPa) Tendencia (hPa) Humedad (%)
2017-12-14 23:00:00 11.7 6 Oeste 17 Norte 0 1014.4 -1 75
2017-12-14 22:00:00 11.9 7 Nordeste 13 Nordeste 0 1014.5 -1.4 77
2017-12-14 21:00:00 11.2 4 Norte 11 Norte 0 1014.7 -1.5 84
2017-12-14 20:00:00 11.7 3 Norte 5 Noroeste 0 1015.4 -1.2 84
2017-12-14 19:00:00 13.5 5 Sudoeste 24 Sudoeste 0 1015.9 -1 82
2017-12-14 18:00:00 14.6 18 Sudoeste 26 Sudoeste 0 1016.2 -1.4 78
2017-12-14 17:00:00 16.1 17 Sudoeste 28 Sudoeste 0 1016.6 -2 66
2017-12-14 16:00:00 16.4 20 Sudoeste 32 Sudoeste 0 1016.9 -2.7 68
2017-12-14 15:00:00 16.8 22 Sudoeste 32 Sudoeste 0 1017.6 -3 63
2017-12-14 14:00:00 16.6 22 Sudoeste 30 Sudoeste 0 1018.6 -2.5 63
2017-12-14 13:00:00 16.1 23 Sudoeste 33 Sudoeste 0 1019.6 -1.5 64
2017-12-14 12:00:00 15.9 24 Sudoeste 35 Sudoeste 0 1020.6 -0.4 63
2017-12-14 11:00:00 14.7 7 Oeste 15 Oeste 0 1021.1 0.1 55
2017-12-14 10:00:00 11.4 4 Noroeste 26 Noroeste 0 1021.1 -0.2 59
2017-12-14 09:00:00 7.3 0 Calma 8 Noroeste 0 1021 -0.6 79
2017-12-14 08:00:00 6.9 8 Noroeste 17 Noroeste 0 1021 -1.2 77
2017-12-14 07:00:00 6.7 13 Norte 18 Norte 0 1021.3 -1.2 81
2017-12-14 06:00:00 6.7 5 Noroeste 11 Noroeste 0 1021.6 -1.4 83
2017-12-14 05:00:00 6.5 0 Calma 5 Noroeste 0 1022.2 -1.1 83
2017-12-14 04:00:00 7.4 3 Noroeste 8 Noroeste 0 1022.5 -1.1 81
2017-12-14 03:00:00 8 3 Noroeste 15 Noroeste 0 1023 -0.8 76
2017-12-14 02:00:00 8.2 12 Noroeste 17 Norte 0 1023.3 -0.5 77
2017-12-14 01:00:00 8.2 7 Norte 18 Noroeste 0 1023.6 -0.6 80
2017-12-14 00:00:00 9.5 14 Norte 22 Norte 0 1023.8 -0.5 74
2017-12-13 23:00:00 9.6 15 Noroeste 22 Norte 0 1023.8 -0.6 75
2017-12-13 22:00:00 10 16 Noroeste 22 Norte 0 1024.2 0.2 77
2017-12-13 21:00:00 11.7 5 Oeste 18 Sudoeste 0 1024.3 0 70
2017-12-13 20:00:00 12.6 8 Sudoeste 18 Oeste 0 1024.4 -0.1 74
2017-12-13 19:00:00 13.3 14 Sudoeste 22 Sudoeste 0 1024 -0.7 69
2017-12-13 18:00:00 14.2 14 Sudoeste 22 Sudoeste 0 1024.3 -0.2 68
2017-12-13 17:00:00 15.5 14 Sudoeste 22 Sur 0 1024.5 -0.6 61
2017-12-13 16:00:00 16.2 12 Sudoeste 21 Sur 0 1024.7 -1 57
2017-12-13 15:00:00 16.2 11 Sudoeste 17 Sur 0 1024.5 -1.7 54
2017-12-13 14:00:00 16 8 Sur 15 Sur 0 1025.1 -1.6 48
2017-12-13 13:00:00 15.9 6 Sur 13 Sur 0 1025.7 -0.5 37
2017-12-13 12:00:00 15.7 4 Sur 17 Noroeste 0 1026.2 0.5 37
2017-12-13 11:00:00 12.6 14 Noroeste 32 Norte 0 1026.7 1.7 36
2017-12-13 10:00:00 9.5 24 Noroeste 37 Noroeste 0 1026.2 1.9 42
2017-12-13 09:00:00 7.8 26 Noroeste 35 Noroeste 0 1025.7 1.8 48
2017-12-13 08:00:00 6.6 27 Noroeste 37 Norte 0 1025 1.3 53
2017-12-13 07:00:00 7 28 Noroeste 37 Noroeste 0 1024.3 0.9 52
2017-12-13 06:00:00 7.1 27 Noroeste 42 Noroeste 0 1023.9 1.1 51
2017-12-13 05:00:00 7.2 29 Noroeste 39 Noroeste 0 1023.7 1.4 55
2017-12-13 04:00:00 7.6 25 Noroeste 37 Noroeste 0 1023.4 1.4 54
2017-12-13 03:00:00 7.9 27 Noroeste 37 Noroeste 0 1022.8 0.8 54
2017-12-13 02:00:00 8.3 23 Noroeste 35 Noroeste 0 1022.3 1.5 54
2017-12-13 01:00:00 8.8 22 Noroeste 33 Noroeste 0 1022 2.1 55
2017-12-13 00:00:00 9.9 21 Noroeste 28 Noroeste 0 1022 2.9 52
2017-12-12 23:00:00 10.4 13 Norte 21 Nordeste 0 1020.8 2.6 48
2017-12-12 22:00:00 9.1 8 Nordeste 21 Noroeste 0 1019.9 2.6 62
2017-12-12 21:00:00 11.2 13 Noroeste 22 Norte 0 1019.1 3.3 56
2017-12-12 20:00:00 10.7 8 Norte -- -- 0 1018.2 3.4 74
2017-12-12 19:00:00 11.9 4 Norte 13 Norte 0 1017.3 3.2 72
2017-12-12 18:00:00 13.8 4 Sudoeste 11 Sudoeste 0 1015.8 2.7 61
2017-12-12 17:00:00 16.1 7 Sudoeste 15 Sudoeste 0 1014.8 2.1 50
2017-12-12 16:00:00 16.5 11 Sudoeste 18 Sur 0 1014.1 2 49
2017-12-12 15:00:00 16.8 14 Sur 22 Sur 0 1013.1 0.7 47
2017-12-12 14:00:00 16.6 17 Sur 22 Sur 0 1012.7 0.4 47
2017-12-12 13:00:00 17.1 14 Sur 21 Sudoeste 0 1012.1 0.8 44
2017-12-12 12:00:00 16.4 13 Noroeste 24 Noroeste 0 1012.4 2.3 37
2017-12-12 11:00:00 15.2 15 Noroeste 28 Noroeste 0 1012.3 3.3 41
2017-12-12 10:00:00 12.1 3 Noroeste 11 Sudeste 0 1011.3 3.6 52
2017-12-12 09:00:00 9.4 3 Sur 18 Norte 0 1010.1 3.9 58
2017-12-12 08:00:00 8 14 Norte 33 Noroeste 0 1009 2.9 62
2017-12-12 07:00:00 8.2 20 Noroeste 30 Noroeste 0 1007.7 1.6 64
2017-12-12 06:00:00 7.9 14 Noroeste 32 Noroeste 0 1006.2 0.7 66
2017-12-12 05:00:00 8.1 24 Noroeste 33 Norte 0 1006.1 0.9 63
2017-12-12 04:00:00 8.2 18 Norte 32 Noroeste 0 1006.1 1.3 64
2017-12-12 03:00:00 8.1 18 Noroeste 26 Norte 0 1005.5 1.2 66
2017-12-12 02:00:00 8 2 Este 22 Noroeste 0 1005.2 1.7 65
2017-12-12 01:00:00 8.8 8 Norte 15 Noroeste 0 1004.8 1.9 63
2017-12-12 00:00:00 10.6 17 Noroeste 28 Noroeste 0 1004.3 1.9 55
2017-12-11 23:00:00 11.3 11 Noroeste 37 Norte 0 1003.5 1.6 49
2017-12-11 22:00:00 10.6 17 Nordeste 24 Norte 0 1002.9 1.6 57
2017-12-11 21:00:00 10.3 13 Nordeste 18 Nordeste 0 1002.4 1.7 62
2017-12-11 20:00:00 11.2 0 Calma 24 Noroeste 0 1001.9 2.3 60
2017-12-11 19:00:00 11.6 10 Norte 32 Oeste 0 1001.3 2 67
2017-12-11 18:00:00 13 20 Oeste 33 Oeste 0 1000.7 2.2 63
2017-12-11 17:00:00 14.7 21 Sudoeste 37 Sudoeste 0 999.6 1.8 55
2017-12-11 16:00:00 15.3 21 Sudoeste 39 Oeste 0 999.3 2.2 54
2017-12-11 15:00:00 13.5 30 Sudoeste 52 Sudoeste 0 998.5 1.6 72
2017-12-11 14:00:00 13.9 18 Sudoeste 39 Oeste 0 997.8 1.1 64
2017-12-11 13:00:00 13.6 15 Noroeste 35 Noroeste 0 997.1 1.6 66
2017-12-11 12:00:00 13.5 21 Noroeste 48 Norte 0 996.9 0.8 62
2017-12-11 11:00:00 15.6 27 Oeste 54 Oeste 0.5 996.7 -0.1 91
2017-12-11 10:00:00 16.1 27 Oeste 76 Oeste 0.2 995.5 -1.1 88
2017-12-11 09:00:00 16.6 27 Oeste 55 Oeste 0 996.1 -0.9 82
2017-12-11 08:00:00 16.3 28 Oeste 74 Oeste 0 996.8 -2.1 83
2017-12-11 07:00:00 15.8 50 Oeste 89 Oeste 0 996.6 -3.7 83
2017-12-11 06:00:00 16.4 55 Sudoeste 80 Sudoeste 0 997 -4.9 81
2017-12-11 05:00:00 16.2 46 Sudoeste 68 Sudoeste 0 998.9 -3.5 86
2017-12-11 04:00:00 15.7 37 Sudoeste 74 Oeste 0.1 1000.3 -4 91
2017-12-11 03:00:00 16.7 49 Oeste 78 Oeste 0 1001.9 -3.7 81
2017-12-11 02:00:00 16 50 Oeste 74 Oeste 0 1002.4 -3.7 88
2017-12-11 01:00:00 16.3 40 Oeste 67 Oeste 0 1004.3 -2.7 82
2017-12-11 00:00:00 16.1 39 Oeste 63 Oeste 0 1005.6 -2.8 84
2017-12-10 23:00:00 15.9 43 Oeste 72 Oeste 0 1006.1 -2.3 84
2017-12-10 22:00:00 16 42 Oeste 61 Sudoeste 0 1007 -1.7 85
2017-12-10 21:00:00 16.2 40 Oeste 65 Oeste 0 1008.4 -0.9 81
2017-12-10 20:00:00 16.6 39 Sudoeste 54 Sudoeste 0 1008.4 -2 72
2017-12-10 19:00:00 16.8 29 Oeste 45 Oeste 0 1008.7 -2.6 68
2017-12-10 18:00:00 16.7 28 Sudoeste 45 Sudoeste 0 1009.3 -2.5 74
2017-12-10 17:00:00 17.1 35 Sudoeste 58 Sudoeste 0 1010.4 -2.7 76
2017-12-10 16:00:00 18.1 38 Sudoeste 67 Oeste 0 1011.3 -3.9 67
2017-12-10 15:00:00 19.7 28 Oeste 39 Oeste 0 1011.8 -5.2 63
2017-12-10 14:00:00 18.4 4 Sur 13 Oeste 0 1013.1 -4.4 67
2017-12-10 13:00:00 17.9 6 Sur 15 Sudoeste 0 1015.2 -2.3 73
2017-12-10 12:00:00 17.4 12 Sudoeste 17 Sudoeste 0 1017 -0.7 65
2017-12-10 11:00:00 17.7 5 Sudoeste 9 Noroeste 0 1017.5 -0.4 60
2017-12-10 10:00:00 14.3 2 Norte 13 Norte 0 1017.5 -0.7 73
2017-12-10 09:00:00 10.7 7 Norte 11 Norte 0 1017.7 -0.7 87
2017-12-10 08:00:00 9.6 4 Norte 8 Norte 0 1017.9 -0.8 87
2017-12-10 07:00:00 9.8 6 Nordeste 11 Este 0 1018.2 -0.8 88
2017-12-10 06:00:00 10.1 3 Norte 11 Norte 0 1018.4 -1.5 90
2017-12-10 05:00:00 11 5 Norte 13 Norte 0 1018.7 -1.4 88
2017-12-10 04:00:00 10.8 5 Noroeste 13 Norte 0 1019 -1.9 85
2017-12-10 03:00:00 11.8 6 Norte 11 Norte 0 1019.9 -1.3 78
2017-12-10 02:00:00 12.5 0 Calma 17 Noroeste 0 1020.1 -1.4 74
2017-12-10 01:00:00 13 5 Nordeste 22 Norte 0 1020.9 -0.8 71
2017-12-10 00:00:00 14.4 10 Norte 24 Norte 0 1021.2 -0.5 67
2017-12-09 23:00:00 14.3 16 Noroeste 22 Noroeste 0 1021.5 0.1 69
2017-12-09 22:00:00 13.3 11 Norte 15 Norte 0 1021.7 0.8 73
2017-12-09 21:00:00 13.4 0 Calma -- -- 0 1021.7 0.9 74
2017-12-09 20:00:00 14.1 8 Norte 13 Norte 0 1021.4 1.2 68
2017-12-09 19:00:00 14.6 3 Nordeste 5 Nordeste 0 1020.9 0.9 74
2017-12-09 18:00:00 16.5 0 Calma 8 Oeste 0 1020.8 0.8 68
2017-12-09 17:00:00 17.5 6 Oeste 17 Sudoeste 0 1020.2 -0.2 75
2017-12-09 16:00:00 18.9 5 Sudoeste 11 Sur 0 1020 -1.1 74
2017-12-09 15:00:00 19.1 5 Sur 11 Sudoeste 0 1020 -1.2 73
2017-12-09 14:00:00 18.5 6 Sur 17 Sudoeste 0 1020.4 -0.9 76
2017-12-09 13:00:00 18.2 13 Sur 18 Sudoeste 0 1021.1 0.4 76
2017-12-09 12:00:00 18 11 Sudoeste 15 Sudoeste 0 1021.2 1 73
2017-12-09 11:00:00 17.6 8 Sudoeste 15 Oeste 0 1021.3 1 61
2017-12-09 10:00:00 16.3 7 Este 17 Este 0 1020.7 0.7 65
2017-12-09 09:00:00 12.7 4 Sur 15 Norte 0 1020.2 0.5 76
2017-12-09 08:00:00 10.9 3 Norte 17 Sudoeste 0 1020.3 0.3 78
2017-12-09 07:00:00 13.9 5 Norte 21 Nordeste 0 1020 -0.1 61
2017-12-09 06:00:00 13 15 Nordeste 22 Nordeste 0 1019.7 -0.6 71
2017-12-09 05:00:00 10.4 6 Norte 11 Norte 0 1020 -0.8 91
2017-12-09 04:00:00 10.3 5 Sudeste 11 Norte 0 1020.1 -1.2 88
2017-12-09 03:00:00 11.8 7 Norte 13 Norte 0 1020.3 -1.5 90
2017-12-09 02:00:00 12.4 12 Norte 15 Norte 0 1020.8 -1.4 89
2017-12-09 01:00:00 12.9 7 Norte 13 Nordeste 0 1021.3 -1.2 88
2017-12-09 00:00:00 11.9 4 Nordeste 5 Nordeste 0 1021.8 -0.9 90
2017-12-08 23:00:00 12.8 3 Nordeste 5 Nordeste 0 1022.2 -0.4 88
2017-12-08 22:00:00 13.4 0 Calma 17 Oeste 0 1022.5 0.1 87
2017-12-08 21:00:00 13.9 13 Sudoeste 21 Oeste 0 1022.7 0.3 84
2017-12-08 20:00:00 14 14 Sudoeste 26 Oeste 0 1022.6 0 82
2017-12-08 19:00:00 14.1 19 Oeste 28 Sudoeste 0 1022.4 0 80
2017-12-08 18:00:00 14.7 17 Sudoeste 30 Sudoeste 0 1022.4 -0.4 78
2017-12-08 17:00:00 16 22 Sudoeste 30 Sudoeste 0 1022.6 -0.9 67
2017-12-08 16:00:00 15.5 19 Sudoeste 32 Sudoeste 0 1022.4 -2.3 68
2017-12-08 15:00:00 16.8 21 Sudoeste 30 Sudoeste 0 1022.8 -2.6 65
2017-12-08 14:00:00 16.6 24 Sudoeste 32 Sudoeste 0 1023.5 -2.8 64
2017-12-08 13:00:00 16.3 22 Sudoeste 33 Sudoeste 0 1024.7 -1.6 61
2017-12-08 12:00:00 15.5 24 Sudoeste 32 Sudoeste 0 1025.4 -0.7 67
2017-12-08 11:00:00 14.5 9 Oeste 15 Oeste 0 1026.3 0.2 65
2017-12-08 10:00:00 11.8 7 Noroeste 17 Noroeste 0 1026.3 0.4 63
2017-12-08 09:00:00 8.3 3 Norte 21 Noroeste 0 1026.1 0.2 80
2017-12-08 08:00:00 7.6 12 Noroeste 26 Noroeste 0 1026.1 0 81
2017-12-08 07:00:00 7.1 15 Noroeste 22 Norte 0 1025.9 -0.3 84
2017-12-08 06:00:00 7.4 13 Noroeste 18 Noroeste 0 1025.9 -0.5 86
2017-12-08 05:00:00 8 10 Noroeste 26 Noroeste 0 1026.1 -0.8 82
2017-12-08 04:00:00 8 14 Noroeste 22 Noroeste 0 1026.2 -1 84
2017-12-08 03:00:00 8.6 15 Noroeste 22 Noroeste 0 1026.4 -1.1 84
2017-12-08 02:00:00 9.1 15 Noroeste 26 Noroeste 0 1026.9 -1 83
2017-12-08 01:00:00 9.4 20 Noroeste 26 Noroeste 0 1027.2 -0.5 82
2017-12-08 00:00:00 9.8 19 Noroeste 26 Noroeste 0 1027.5 -0.2 81
2017-12-07 23:00:00 9.8 12 Noroeste 17 Norte 0 1027.9 0.4 86
2017-12-07 22:00:00 9.7 9 Noroeste 13 Noroeste 0 1027.7 0.5 87
2017-12-07 21:00:00 10.8 5 Noroeste 8 Noroeste 0 1027.7 0.5 84
2017-12-07 20:00:00 11.3 5 Norte 8 Norte 0 1027.5 0.3 83
2017-12-07 19:00:00 12.3 3 Norte 13 Sudoeste 0 1027.2 0 79
2017-12-07 18:00:00 14.4 6 Sudoeste 15 Sudoeste 0 1027.2 -0.2 70
2017-12-07 17:00:00 16.1 10 Sudoeste 15 Sudoeste 0 1027.2 -0.7 61
2017-12-07 16:00:00 16.7 11 Sur 17 Sur 0 1027.2 -1.7 58
2017-12-07 15:00:00 16.9 13 Sudoeste 18 Sudoeste 0 1027.4 -2.1 56
2017-12-07 14:00:00 17.1 9 Sur 15 Sudoeste 0 1027.9 -1.9 54
2017-12-07 13:00:00 17.1 7 Sur 13 Sudoeste 0 1028.9 -0.4 54
2017-12-07 12:00:00 16 3 Oeste 24 Noroeste 0 1029.5 0.7 54
2017-12-07 11:00:00 13.1 18 Noroeste 35 Noroeste 0 1029.8 1.2 57
2017-12-07 10:00:00 10.4 24 Noroeste 35 Noroeste 0 1029.3 0.9 64
2017-12-07 09:00:00 8.2 26 Noroeste 37 Noroeste 0 1028.8 0.3 72
2017-12-07 08:00:00 7.5 27 Noroeste 39 Noroeste 0 1028.6 -0.1 72
2017-12-07 07:00:00 7.6 27 Noroeste 39 Norte 0 1028.4 -0.6 75
2017-12-07 06:00:00 7.8 28 Noroeste 39 Norte 0 1028.5 -0.6 74
2017-12-07 05:00:00 8.3 25 Noroeste 37 Noroeste 0 1028.7 -0.4 75
2017-12-07 04:00:00 8.7 25 Noroeste 35 Noroeste 0 1029 -0.5 76
2017-12-07 03:00:00 9.2 24 Noroeste 39 Noroeste 0 1029.1 -0.9 76
2017-12-07 02:00:00 9.6 26 Noroeste 35 Noroeste 0 1029.1 -0.8 75
2017-12-07 01:00:00 9.6 21 Norte 30 Noroeste 0 1029.5 -0.4 78
2017-12-07 00:00:00 10.3 21 Noroeste 30 Norte 0 1030 0.2 76
2017-12-06 23:00:00 10.6 21 Noroeste 28 Noroeste 0 1029.9 0.4 76
2017-12-06 22:00:00 11 13 Norte 18 Norte 0 1029.9 0.6 77
2017-12-06 21:00:00 11.6 12 Norte 18 Norte 0 1029.8 0.8 75
2017-12-06 20:00:00 12.5 12 Nordeste 18 Nordeste 0 1029.5 0.8 72
2017-12-06 19:00:00 12.3 10 Nordeste 15 Nordeste 0 1029.3 0.5 75
2017-12-06 18:00:00 14.5 11 Este 21 Este 0 1029 0 66
2017-12-06 17:00:00 16.7 14 Este 24 Este 0 1028.7 -0.8 55
2017-12-06 16:00:00 17.8 16 Este 26 Este 0 1028.8 -1.7 50
2017-12-06 15:00:00 18.4 11 Este 26 Este 0 1029 -2.3 47
2017-12-06 14:00:00 18.5 15 Este 28 Este 0 1029.5 -2.3 45
2017-12-06 13:00:00 17.7 14 Este 22 Nordeste 0 1030.5 -1.1 47
2017-12-06 12:00:00 16.4 8 Norte 30 Noroeste 0 1031.3 -0.2 49
2017-12-06 11:00:00 13.6 24 Noroeste 39 Norte 0 1031.8 0.6 52
2017-12-06 10:00:00 11 29 Noroeste 42 Noroeste 0 1031.6 0.7 57
2017-12-06 09:00:00 9.8 26 Noroeste 50 Noroeste 0 1031.5 0.6 60
2017-12-06 08:00:00 8.7 30 Noroeste 45 Norte 0 1031.2 0 64
2017-12-06 07:00:00 8 30 Noroeste 45 Noroeste 0 1030.9 -0.7 67
2017-12-06 06:00:00 7.9 31 Noroeste 42 Norte 0 1030.9 -0.7 67
2017-12-06 05:00:00 8.2 29 Noroeste 42 Noroeste 0 1031.2 -0.7 66
2017-12-06 04:00:00 8.9 26 Norte 41 Noroeste 0 1031.6 -0.6 66
2017-12-06 03:00:00 9.4 25 Norte 37 Noroeste 0 1031.6 -0.9 68
2017-12-06 02:00:00 9.1 23 Norte 37 Norte 0 1031.9 -0.7 71
2017-12-06 01:00:00 9.5 23 Norte 35 Norte 0 1032.2 -0.1 71
2017-12-06 00:00:00 9.3 22 Noroeste 32 Noroeste 0 1032.5 0.2 74
2017-12-05 23:00:00 10.1 19 Noroeste 28 Noroeste 0 1032.6 0.6 73
2017-12-05 22:00:00 10.7 15 Norte 24 Noroeste 0 1032.3 0.7 72
2017-12-05 21:00:00 11.1 9 Norte 17 Norte 0 1032.3 1 71
2017-12-05 20:00:00 11.8 11 Nordeste 26 Este 0 1032 1 68
2017-12-05 19:00:00 11.7 14 Nordeste 21 Nordeste 0 1031.6 0.7 71
2017-12-05 18:00:00 13.5 14 Este 30 Este 0 1031.3 0.3 63
2017-12-05 17:00:00 15.6 23 Este 32 Este 0 1031 -0.4 55
2017-12-05 16:00:00 16.8 21 Este 33 Este 0 1030.9 -1.3 50
2017-12-05 15:00:00 17.2 22 Este 33 Este 0 1031 -2.1 47
2017-12-05 14:00:00 17 22 Este 35 Este 0 1031.4 -2.1 48
2017-12-05 13:00:00 16.9 20 Nordeste 37 Este 0 1032.2 -1.1 50
2017-12-05 12:00:00 16.4 15 Nordeste 32 Este 0 1033.1 0.3 50
2017-12-05 11:00:00 13.5 20 Noroeste 37 Norte 0 1033.5 1.1 52
2017-12-05 10:00:00 10.6 26 Noroeste 41 Noroeste 0 1033.3 1.3 57
2017-12-05 09:00:00 8.4 31 Noroeste 42 Noroeste 0 1032.8 1.1 62
2017-12-05 08:00:00 8 30 Norte 45 Noroeste 0 1032.4 0.6 65
2017-12-05 07:00:00 8 28 Noroeste 42 Noroeste 0 1032 -0.2 65
2017-12-05 06:00:00 8 25 Norte 41 Noroeste 0 1031.7 -0.5 65
2017-12-05 05:00:00 8.1 28 Noroeste 42 Noroeste 0 1031.8 -0.5 64
2017-12-05 04:00:00 7.8 26 Noroeste 39 Noroeste 0 1032.2 -0.4 65
2017-12-05 03:00:00 8.1 24 Norte 37 Norte 0 1032.2 -0.6 66
2017-12-05 02:00:00 8.2 26 Noroeste 35 Noroeste 0 1032.3 -0.3 67
2017-12-05 01:00:00 8.5 22 Norte 35 Noroeste 0 1032.6 0.1 67
2017-12-05 00:00:00 8.8 21 Norte 30 Noroeste 0 1032.8 0.5 67
2017-12-04 23:00:00 9.3 15 Norte 26 Norte 0 1032.6 0.8 67
2017-12-04 22:00:00 9.3 15 Norte 22 Norte 0 1032.5 1.3 69
2017-12-04 21:00:00 10.6 13 Norte 21 Norte 0 1032.3 1.5 65
2017-12-04 20:00:00 11 15 Nordeste 28 Nordeste 0 1031.8 1.4 64
2017-12-04 19:00:00 11.4 17 Nordeste 24 Nordeste 0 1031.2 1.1 63
2017-12-04 18:00:00 12.5 15 Este 28 Este 0 1030.8 0.8 61
2017-12-04 17:00:00 14.6 22 Este 30 Este 0 1030.4 0.1 51
2017-12-04 16:00:00 15.9 19 Este 32 Este 0 1030.1 -0.8 47
2017-12-04 15:00:00 16 17 Este 30 Este -- 1030 -1.2 45
2017-12-04 14:00:00 15.9 17 Este 30 Este -- 1030.3 -1 44
2017-12-04 13:00:00 15.6 15 Este 30 Este -- 1030.9 0.2 44
2017-12-04 12:00:00 14.8 16 Este 28 Este 0 1031.2 1.4 44
2017-12-04 11:00:00 12 13 Norte 30 Norte 0 1031.3 2.1 41
2017-12-04 10:00:00 8.6 20 Norte 32 Noroeste 0 1030.7 2 47
2017-12-04 09:00:00 6.2 24 Noroeste 37 Noroeste 0 1029.8 1.5 54
2017-12-04 08:00:00 5.3 25 Noroeste 35 Norte 0 1029.2 1 56
2017-12-04 07:00:00 5.8 24 Noroeste 35 Noroeste 0 1028.7 0.3 55
2017-12-04 06:00:00 5.6 22 Norte 33 Norte 0 1028.3 0 58
2017-12-04 05:00:00 5.6 23 Norte 33 Norte 0 1028.2 0.1 59
2017-12-04 04:00:00 6.2 21 Noroeste 32 Norte 0 1028.4 0.2 57
2017-12-04 03:00:00 6.5 24 Norte 32 Noroeste 0 1028.3 0.3 58
2017-12-04 02:00:00 7.1 23 Noroeste 32 Noroeste 0 1028.1 0.7 56
2017-12-04 01:00:00 6.8 21 Norte 32 Norte 0 1028.2 1.2 61
2017-12-04 00:00:00 7.6 22 Noroeste 30 Noroeste 0 1028 1.4 59
2017-12-03 23:00:00 8 18 Noroeste 28 Noroeste 0 1027.4 1 59
2017-12-03 22:00:00 8.7 17 Norte 26 Norte 0 1027 1.1 58
2017-12-03 21:00:00 8 11 Norte 15 Norte 0 1026.6 1.5 61
2017-12-03 20:00:00 8.6 9 Norte 15 Norte 0 1026.4 2 57
2017-12-03 19:00:00 9.7 6 Norte 11 Norte 0 1025.9 2 56
2017-12-03 18:00:00 12.4 6 Sur 18 Sur 0 1025.1 1.5 42
2017-12-03 17:00:00 14 13 Sur 21 Sur 0 1024.4 0.7 38
2017-12-03 16:00:00 14.9 17 Sur 24 Sur 0 1023.9 0.2 36
2017-12-03 15:00:00 15.4 13 Sur 21 Sur 0 1023.6 -0.2 34
2017-12-03 14:00:00 14.8 13 Sur 21 Sur 0 1023.7 0.2 31
2017-12-03 13:00:00 14.6 14 Sudeste 18 Sudeste 0 1023.7 0.8 26
2017-12-03 12:00:00 13.9 12 Nordeste 32 Norte 0 1023.8 1.6 28
2017-12-03 11:00:00 12.2 26 Noroeste 42 Noroeste 0 1023.5 2 28
2017-12-03 10:00:00 10.6 30 Noroeste 50 Norte 0 1022.9 2.1 30
2017-12-03 09:00:00 9.5 31 Noroeste 50 Noroeste 0 1022.2 2 33
2017-12-03 08:00:00 9.2 30 Norte 48 Norte 0 1021.5 1.7 32
2017-12-03 07:00:00 9.3 29 Noroeste 54 Norte 0 1020.8 1.1 33
2017-12-03 06:00:00 9.6 31 Norte 52 Noroeste 0 1020.2 0.5 32
2017-12-03 05:00:00 10.1 29 Norte 52 Norte 0 1019.8 0.6 33
2017-12-03 04:00:00 10.6 32 Norte 52 Norte 0 1019.7 0.1 32
2017-12-03 03:00:00 10.7 30 Norte 48 Noroeste 0 1019.7 -0.5 33
2017-12-03 02:00:00 10.9 32 Noroeste 50 Noroeste 0 1019.2 -0.6 33
2017-12-03 01:00:00 11.1 32 Noroeste 52 Noroeste 0 1019.6 -0.1 33
2017-12-03 00:00:00 11.3 28 Noroeste 42 Noroeste 0 1020.2 0.7 32
2017-12-02 23:00:00 11.1 19 Norte 45 Noroeste 0 1019.8 0.4 34
2017-12-02 22:00:00 10.9 23 Norte 41 Noroeste 0 1019.7 0.6 35
2017-12-02 21:00:00 10.7 26 Noroeste 41 Norte 0 1019.5 1.2 35
2017-12-02 20:00:00 11.2 22 Noroeste 35 Noroeste 0 1019.4 1.4 35
2017-12-02 19:00:00 11.4 15 Noroeste 30 Oeste 0 1019.1 1.1 36
2017-12-02 18:00:00 12.9 20 Oeste 35 Sudoeste 0 1018.3 0.3 53
2017-12-02 17:00:00 14.3 25 Sudoeste 37 Sudoeste 0 1018 -0.4 47
2017-12-02 16:00:00 15.2 27 Sudoeste 39 Sudoeste 0 1018 -1 42
2017-12-02 15:00:00 15.5 26 Sudoeste 39 Sudoeste 0 1018 -1.3 38
2017-12-02 14:00:00 15.8 24 Sudoeste 33 Sudoeste 0 1018.4 -1.2 40
2017-12-02 13:00:00 16.1 17 Oeste 33 Noroeste 0 1019 -0.3 30
2017-12-02 12:00:00 14.5 23 Noroeste 39 Noroeste 0 1019.3 0.5 17
2017-12-02 11:00:00 13.2 28 Noroeste 41 Noroeste 0 1019.6 1.3 21
2017-12-02 10:00:00 10.3 29 Noroeste 42 Noroeste 0 1019.3 1.4 27
2017-12-02 09:00:00 9.2 30 Noroeste 46 Noroeste 0 1018.8 1.4 31
2017-12-02 08:00:00 8.8 26 Norte 39 Norte 0 1018.3 1 33
2017-12-02 07:00:00 8.9 23 Noroeste 48 Noroeste 0 1017.9 0.1 35
2017-12-02 06:00:00 9.9 36 Norte 54 Norte 0 1017.4 -0.4 28
2017-12-02 05:00:00 9.6 35 Noroeste 58 Norte 0 1017.3 -0.6 36
2017-12-02 04:00:00 10.3 36 Norte 52 Norte 0 1017.8 -0.6 34
2017-12-02 03:00:00 10.5 30 Norte 50 Norte 0 1017.8 -0.7 36
2017-12-02 02:00:00 10.8 30 Norte 46 Norte 0 1017.9 0 36
2017-12-02 01:00:00 9.8 19 Norte 28 Norte 0 1018.4 1.5 44
2017-12-02 00:00:00 9.9 11 Noroeste 18 Oeste 0 1018.5 3.1 49
2017-12-01 23:00:00 11.1 7 Noroeste 28 Noroeste 0 1017.9 3.4 54
2017-12-01 22:00:00 13 23 Noroeste 45 Norte 0 1016.9 3.6 41
2017-12-01 21:00:00 12.6 16 Norte 35 Noroeste 0 1015.4 2.8 41
2017-12-01 20:00:00 13.4 21 Noroeste 45 Noroeste 0 1014.5 2.5 35
2017-12-01 19:00:00 14.4 29 Noroeste 45 Noroeste 0 1013.3 1.5 31
2017-12-01 18:00:00 13.6 3 Oeste 28 Sudoeste 0 1012.6 0.1 55
2017-12-01 17:00:00 15.5 19 Sudoeste 35 Oeste 0 1012 -1.6 45
2017-12-01 16:00:00 15.5 26 Sudoeste 37 Sudoeste 0 1011.8 -3.2 49
2017-12-01 15:00:00 15.2 29 Sudoeste 42 Sudoeste 0 1012.5 -3.5 52
2017-12-01 14:00:00 15.4 29 Sudoeste 41 Sudoeste 0 1013.6 -2.9 53
2017-12-01 13:00:00 15.5 28 Sudoeste 39 Sudoeste 0 1015 -1.6 50
2017-12-01 12:00:00 15.4 26 Sudoeste 37 Sudoeste 0 1016 -0.4 52
2017-12-01 11:00:00 13.4 6 Noroeste 26 Noroeste 0 1016.5 0 43
2017-12-01 10:00:00 10.8 16 Noroeste 33 Noroeste 0 1016.6 0.4 49
2017-12-01 09:00:00 8.3 23 Noroeste 33 Noroeste 0 1016.4 -0.1 61
2017-12-01 08:00:00 7.6 22 Noroeste 35 Noroeste 0 1016.5 0 62
2017-12-01 07:00:00 7.6 20 Noroeste 30 Noroeste 0 1016.2 -0.7 67
2017-12-01 06:00:00 8.6 21 Noroeste 33 Noroeste 0 1016.5 -0.4 58
2017-12-01 05:00:00 9.2 24 Noroeste 35 Noroeste 0 1016.5 -0.3 56
2017-12-01 04:00:00 9.2 22 Noroeste 35 Noroeste 0 1016.9 0 59
2017-12-01 03:00:00 9.2 25 Noroeste 37 Noroeste 0 1016.9 0.1 62
2017-12-01 02:00:00 10.1 17 Noroeste 26 Noroeste 0 1016.8 0.7 58
2017-12-01 01:00:00 10.2 5 Norte 15 Noroeste 0 1016.9 1.3 76
2017-12-01 00:00:00 9.9 9 Norte 11 Norte 0 1016.8 1.8 86
2017-11-30 23:00:00 10.1 4 Norte 11 Norte 0 1016.1 1.9 88
2017-11-30 22:00:00 10.8 2 Nordeste 8 Norte 0 1015.6 2.4 83
2017-11-30 21:00:00 11.1 2 Norte 8 Noroeste 0 1015 2.4 87
2017-11-30 20:00:00 10.8 6 Noroeste 15 Oeste 0.1 1014.2 2.3 88
2017-11-30 19:00:00 10.6 0 Calma 15 Noroeste 1.1 1013.2 2.3 88
2017-11-30 18:00:00 10.5 0 Calma 18 Nordeste 1.1 1012.6 3.7 91
2017-11-30 17:00:00 10.3 11 Nordeste 24 Este 3.8 1011.9 3.1 89
2017-11-30 16:00:00 11.5 8 Sudoeste 28 Nordeste 1.3 1010.9 2.5 86
2017-11-30 15:00:00 11.4 19 Nordeste 33 Nordeste 1.2 1008.9 0.1 80
2017-11-30 14:00:00 12.7 10 Norte 42 Nordeste 0.5 1008.8 0.4 80
2017-11-30 13:00:00 12.9 32 Nordeste 45 Nordeste 0 1008.4 1.1 75
2017-11-30 12:00:00 12.8 8 Norte 32 Nordeste 0.8 1008.8 2.2 81
2017-11-30 11:00:00 13.4 17 Nordeste 37 Nordeste 0.6 1008.4 2.5 77
2017-11-30 10:00:00 13.6 14 Nordeste 24 Norte 0 1007.3 2.2 77
2017-11-30 09:00:00 13.6 16 Nordeste 33 Nordeste 1.4 1006.6 1.8 79
2017-11-30 08:00:00 14.4 11 Nordeste 30 Norte 0 1005.9 1.2 73
2017-11-30 07:00:00 14.2 17 Nordeste 28 Nordeste 0 1005.1 0.3 77
2017-11-30 06:00:00 14.5 15 Este 24 Este 0 1004.8 0 80
2017-11-30 05:00:00 14.5 5 Nordeste 9 Nordeste 0 1004.7 -0.1 86
2017-11-30 04:00:00 15 8 Norte 18 Norte 0 1004.8 -0.4 81
2017-11-30 03:00:00 14.6 2 Nordeste 17 Norte 0 1004.8 -0.4 85
2017-11-30 02:00:00 14.9 4 Norte 15 Nordeste 0 1004.8 -0.1 79
2017-11-30 01:00:00 14.7 8 Nordeste 18 Nordeste 0 1005.2 1 81
2017-11-30 00:00:00 14.6 3 Este 24 Nordeste 0 1005.2 1.7 87
2017-11-29 23:00:00 14.7 17 Este 30 Este 0 1004.9 2.1 90
2017-11-29 22:00:00 14.6 22 Este 37 Este 0 1004.2 2 91
2017-11-29 21:00:00 15.1 27 Nordeste 33 Nordeste 2.4 1003.5 1.7 92
2017-11-29 20:00:00 17.1 21 Sudoeste 35 Sudoeste 1.6 1002.8 1 94
2017-11-29 19:00:00 17.4 24 Sudoeste 33 Sudoeste 0.5 1002.2 0.4 94
2017-11-29 18:00:00 17.6 21 Sudoeste 39 Sudoeste 0.1 1001.8 0.4 91
2017-11-29 17:00:00 17.1 24 Sudoeste 42 Oeste 0.6 1001.8 -0.2 93
2017-11-29 16:00:00 17.5 22 Sudoeste 50 Sudoeste 0 1001.8 -1.2 91
2017-11-29 15:00:00 17.5 34 Sudoeste 48 Sudoeste 0 1001.4 -2 90
2017-11-29 14:00:00 17.2 29 Sudoeste 46 Sudoeste 0 1002 -2.5 89
2017-11-29 13:00:00 16.6 24 Oeste 50 Oeste 0 1003 -0.4 92
2017-11-29 12:00:00 17 27 Oeste 54 Oeste 0 1003.4 -1.1 88
2017-11-29 11:00:00 16.7 28 Oeste 55 Sudoeste 0 1004.5 0.2 88
2017-11-29 10:00:00 16.5 28 Sudoeste 54 Sudoeste 0.1 1003.4 -1.1 90
2017-11-29 09:00:00 16.7 30 Sudoeste 45 Oeste 0 1004.5 -0.1 88
2017-11-29 08:00:00 16.7 21 Sudoeste 39 Sudoeste 0.2 1004.3 -1.1 88
2017-11-29 07:00:00 16.5 15 Oeste 30 Sudoeste 0 1004.5 -1.7 86
2017-11-29 06:00:00 16.6 23 Sudoeste 35 Sudoeste 0 1004.6 -2 84
2017-11-29 05:00:00 16.2 21 Sudoeste 35 Sudoeste 0 1005.4 -2.2 82
2017-11-29 04:00:00 16 24 Oeste 41 Oeste 0 1006.2 -2.5 81
2017-11-29 03:00:00 16.1 30 Sudoeste 41 Sudoeste 0 1006.6 -3.1 80
2017-11-29 02:00:00 14.9 3 Noroeste 18 Sudoeste 0 1007.6 -3 79
2017-11-29 01:00:00 14 2 Nordeste 8 Nordeste 0 1008.7 -2.3 84
2017-11-29 00:00:00 13.7 0 Calma 8 Norte 0 1009.7 -1.8 83
2017-11-28 23:00:00 14.8 0 Calma 11 Oeste 0 1010.6 -1.5 79
2017-11-28 22:00:00 15.7 11 Sudoeste 22 Sudoeste 0 1011 -1.4 75
2017-11-28 21:00:00 15.8 11 Sudoeste 22 Sudoeste 0 1011.5 -0.8 75
2017-11-28 20:00:00 16.2 9 Sudoeste 24 Oeste 0 1012.1 -0.9 75
2017-11-28 19:00:00 16.4 15 Oeste 33 Sudoeste 0 1012.4 -1.4 70
2017-11-28 18:00:00 17.1 16 Sudoeste 24 Sudoeste 0 1012.3 -2.1 61
2017-11-28 17:00:00 17.1 15 Sudoeste 24 Sur 0 1013 -2.2 71
2017-11-28 16:00:00 17.6 15 Sudoeste 22 Sudoeste 0 1013.8 -2.9 70
2017-11-28 15:00:00 18.1 14 Sudoeste 24 Sudoeste 0 1014.4 -3.4 70
2017-11-28 14:00:00 17.9 14 Sudoeste 24 Sudoeste 0 1015.2 -3.7 65
2017-11-28 13:00:00 17.6 19 Sudoeste 26 Sudoeste 0 1016.7 -2 70
2017-11-28 12:00:00 17.4 5 Sudoeste 18 Sudoeste 0 1017.8 -1.4 72
2017-11-28 11:00:00 17 11 Sudoeste 17 Sudoeste 0 1018.9 -0.2 74
2017-11-28 10:00:00 16.7 0 Calma 5 Noroeste 0 1018.7 -0.4 72
2017-11-28 09:00:00 14.3 2 Noroeste 13 Noroeste 0 1019.2 -0.1 81
2017-11-28 08:00:00 13.3 5 Norte 8 Norte 0 1019.1 -0.5 84
2017-11-28 07:00:00 12.9 5 Norte 8 Norte 0 1019.1 -1.1 85
2017-11-28 06:00:00 12.6 5 Norte 8 Norte 0 1019.3 -1.2 87
2017-11-28 05:00:00 12.8 5 Norte -- -- 0 1019.6 -1.6 87
2017-11-28 04:00:00 12.9 -- -- -- -- 0 1020.2 -1.9 87
2017-11-28 03:00:00 13.6 3 Norte 8 Nordeste 0 1020.5 -2.2 84
2017-11-28 02:00:00 14.4 4 Nordeste -- -- 0 1021.2 -1.6 82
2017-11-28 01:00:00 15.9 2 Norte -- -- 0 1022.1 -1.2 77
2017-11-28 00:00:00 16.1 3 Norte 13 Norte 0 1022.7 -0.7 76
2017-11-27 23:00:00 16.3 7 Norte 13 Norte 0 1022.8 -0.7 78
2017-11-27 22:00:00 16.7 2 Nordeste 9 Sur 0 1023.3 -0.2 72
2017-11-27 21:00:00 17.2 5 Sur 11 Sur 0 1023.4 0.1 71
2017-11-27 20:00:00 17.2 8 Sur 13 Sur 0 1023.5 0.1 70
2017-11-27 19:00:00 17.4 4 Sudeste 15 Sur 0 1023.5 0 66
2017-11-27 18:00:00 17.6 11 Sudeste 18 Sudeste 0 1023.3 -0.4 68
2017-11-27 17:00:00 18.6 10 Sudeste 21 Sur 0 1023.4 -0.8 61
2017-11-27 16:00:00 18.9 15 Sur 21 Sur 0 1023.5 -1.5 64
2017-11-27 15:00:00 19.1 14 Sur 21 Sudeste 0 1023.7 -2.2 64
2017-11-27 14:00:00 19.6 13 Sur 24 Este 0 1024.2 -2.3 61
2017-11-27 13:00:00 19.6 15 Este 30 Nordeste 0 1025 -1.6 56
2017-11-27 12:00:00 18.8 17 Este 28 Nordeste 0 1025.9 -0.2 61
2017-11-27 11:00:00 17.8 15 Nordeste 24 Nordeste 0 1026.5 0.9 66
2017-11-27 10:00:00 16.8 14 Este 21 Este 0 1026.6 1.3 70
2017-11-27 09:00:00 15.8 0 Calma 5 Este 0 1026.1 1 75
2017-11-27 08:00:00 15.1 3 Nordeste 5 Sudeste 0 1025.6 0.7 78
2017-11-27 07:00:00 15.6 0 Calma 11 Norte 0 1025.3 0.1 76
2017-11-27 06:00:00 16.1 4 Norte 11 Norte 0 1025.1 -0.1 71
2017-11-27 05:00:00 16 6 Norte 13 Norte 0 1024.9 -0.3 70
2017-11-27 04:00:00 15.1 10 Norte 15 Norte 0 1025.2 -0.4 73
2017-11-27 03:00:00 14.6 10 Norte 15 Norte 0 1025.2 -0.7 75
2017-11-27 02:00:00 14.5 9 Norte 15 Norte 0 1025.2 -1.1 75
2017-11-27 01:00:00 14.6 12 Norte 15 Norte 0 1025.6 -0.7 74
2017-11-27 00:00:00 15.9 10 Norte 15 Norte 0 1025.9 0.1 69
2017-11-26 23:00:00 15.8 10 Norte 15 Norte 0 1026.3 1 70
2017-11-26 22:00:00 15.3 6 Norte 15 Nordeste 0 1026.3 1.3 69
2017-11-26 21:00:00 14.8 9 Nordeste 21 Este 0 1025.8 1.2 72
2017-11-26 20:00:00 15.9 14 Nordeste 26 Este 0 1025.3 1.4 72
2017-11-26 19:00:00 16.1 18 Nordeste 26 Este 0 1025 1.7 70
2017-11-26 18:00:00 17.3 20 Este 41 Este 0 1024.6 1.8 65
2017-11-26 17:00:00 18.8 28 Este 41 Este 0 1023.9 0.8 59
2017-11-26 16:00:00 20.2 28 Este 42 Este 0 1023.3 -0.3 54
2017-11-26 15:00:00 20.4 28 Este 48 Este 0 1022.8 -1.3 54
2017-11-26 14:00:00 20.9 32 Este 46 Este 0 1023.1 -1 52
2017-11-26 13:00:00 21 30 Este 41 Este 0 1023.6 0.3 52
2017-11-26 12:00:00 20.2 30 Este 41 Este 0 1024.1 1.8 57
2017-11-26 11:00:00 19.2 31 Este 46 Nordeste 0 1024.1 3 60
2017-11-26 10:00:00 18.7 29 Este 42 Este 0 1023.3 2.9 62
2017-11-26 09:00:00 18.1 22 Nordeste 37 Nordeste 0 1022.3 2.7 61
2017-11-26 08:00:00 15.7 8 Nordeste 17 Este 0 1021.1 1.9 71
2017-11-26 07:00:00 17.5 3 Nordeste 15 Nordeste 0 1020.4 1.3 51
2017-11-26 06:00:00 17.8 5 Nordeste 17 Nordeste 0 1019.6 0.7 57
2017-11-26 05:00:00 16.9 8 Nordeste 15 Nordeste 0 1019.2 0.7 54
2017-11-26 04:00:00 16.8 9 Norte 17 Norte 0 1019.1 0.6 62
2017-11-26 03:00:00 16.2 6 Noroeste 13 Noroeste 0 1018.9 0.5 72
2017-11-26 02:00:00 16.5 8 Nordeste 15 Nordeste 0 1018.5 0.2 72
2017-11-26 01:00:00 16.1 9 Nordeste 17 Nordeste 0 1018.5 0.5 77
2017-11-26 00:00:00 16.2 13 Nordeste 17 Nordeste 0 1018.4 0.8 77
2017-11-25 23:00:00 16.6 9 Nordeste 15 Nordeste 0 1018.3 1.2 72
2017-11-25 22:00:00 16.3 10 Nordeste 15 Nordeste 0 1018 1.1 79
2017-11-25 21:00:00 16.6 4 Nordeste 13 Nordeste 0 1017.6 1.3 80
2017-11-25 20:00:00 16.6 5 Este 5 Este 0 1017.1 0.7 78
2017-11-25 19:00:00 17.4 3 Noroeste 11 Oeste 0 1016.9 0.7 80
2017-11-25 18:00:00 18.1 2 Sudoeste 13 Sudoeste 0 1016.3 -0.1 75
2017-11-25 17:00:00 19.1 8 Sudoeste 13 Sudoeste 0 1016.4 -0.4 73
2017-11-25 16:00:00 19.5 3 Sur 13 Sudoeste 0 1016.2 -1.4 68
2017-11-25 15:00:00 19.5 6 Sur 11 Sur 0 1016.4 -1.8 73
2017-11-25 14:00:00 19.1 2 Sudoeste 17 Sudoeste 0 1016.8 -1.9 75
2017-11-25 13:00:00 19 13 Sur 18 Sur 0 1017.6 -0.9 77
2017-11-25 12:00:00 18.8 6 Sur 13 Sudoeste 0 1018.2 -0.2 74
2017-11-25 11:00:00 18.5 5 Oeste 15 Oeste 0 1018.7 0.9 68
2017-11-25 10:00:00 16.9 3 Oeste 22 Noroeste 0 1018.5 0.9 61
2017-11-25 09:00:00 13.3 8 Noroeste 13 Noroeste 0 1018.4 1.2 45
2017-11-25 08:00:00 11.6 12 Noroeste 17 Norte 0 1017.8 0.6 51
2017-11-25 07:00:00 12.4 13 Noroeste 18 Norte 0 1017.6 0.1 43
2017-11-25 06:00:00 12.4 11 Noroeste 17 Noroeste 0 1017.2 -0.6 44
2017-11-25 05:00:00 11.8 12 Noroeste 17 Noroeste 0 1017.2 -0.2 50
2017-11-25 04:00:00 11.3 10 Noroeste 15 Norte 0 1017.5 -0.1 61
2017-11-25 03:00:00 10.6 3 Norte 8 Norte 0 1017.8 -0.4 66
2017-11-25 02:00:00 11.2 0 Calma 5 Norte 0 1017.4 -0.7 69
2017-11-25 01:00:00 11.9 0 Calma 4 Norte 0 1017.6 -0.5 73
2017-11-25 00:00:00 13.1 0 Calma 13 Noroeste 0 1018.2 0 71
2017-11-24 23:00:00 13.5 2 Norte 8 Norte 0 1018.1 -0.1 78
2017-11-24 22:00:00 13.2 0 Calma 15 Noroeste 0 1018.1 0.2 85
2017-11-24 21:00:00 13.8 8 Noroeste -- -- 0 1018.2 0.7 86
2017-11-24 20:00:00 14.2 5 Noroeste 11 Noroeste 0 1018.2 0.6 86
2017-11-24 19:00:00 15.3 3 Noroeste 8 Norte 0 1017.9 0.5 82
2017-11-24 18:00:00 17.8 0 Calma 4 Sudoeste 0 1017.5 -0.1 79
2017-11-24 17:00:00 19.4 0 Calma 8 Sudoeste 0 1017.6 -0.6 74
2017-11-24 16:00:00 19.6 5 Sur 13 Sur 0 1017.4 -1.2 70
2017-11-24 15:00:00 19.4 8 Sudoeste 13 Sur 0 1017.6 -1.8 73
2017-11-24 14:00:00 19.6 5 Sur 13 Sudoeste 0 1018.2 -1.4 63
2017-11-24 13:00:00 19.4 6 Sur 13 Sudoeste 0 1018.6 -0.5 60
2017-11-24 12:00:00 19.1 4 Sudoeste 11 Sudoeste 0 1019.4 0.4 53
2017-11-24 11:00:00 18.7 3 Sur 8 Sur 0 1019.6 0.9 50
2017-11-24 10:00:00 16.5 4 Sudeste 8 Sur 0 1019.1 0.8 61
2017-11-24 09:00:00 13.3 0 Calma 15 Norte 0 1019 1 52
2017-11-24 08:00:00 10.9 13 Norte 17 Norte 0 1018.7 0.6 55
2017-11-24 07:00:00 10.5 11 Norte 13 Norte 0 1018.3 0 50
2017-11-24 06:00:00 11.2 13 Norte 15 Noroeste 0 1018 -0.5 49
2017-11-24 05:00:00 11 10 Noroeste 13 Noroeste 0 1018.1 -0.5 53
2017-11-24 04:00:00 11.8 5 Norte 11 Norte 0 1018.3 -0.4 71
2017-11-24 03:00:00 12.2 10 Norte 13 Norte 0 1018.5 -0.3 56
2017-11-24 02:00:00 12.2 12 Norte 15 Norte 0 1018.6 -0.1 57
2017-11-24 01:00:00 12.6 13 Norte 15 Norte 0 1018.7 0.1 54
2017-11-24 00:00:00 12.5 12 Norte 15 Noroeste 0 1018.8 0.2 63
2017-11-23 23:00:00 13.4 13 Norte 17 Norte 0 1018.7 0.2 72
2017-11-23 22:00:00 13.1 5 Noroeste 13 Noroeste 0 1018.6 0.3 87
2017-11-23 21:00:00 13.7 2 Noroeste 11 Noroeste 0 1018.6 0.7 90
2017-11-23 20:00:00 13.9 5 Norte 8 Norte 0 1018.5 0.9 89
2017-11-23 19:00:00 15.2 0 Calma 8 Oeste 0 1018.3 1 87
2017-11-23 18:00:00 17 5 Sudoeste 13 Sudoeste 0 1017.9 0.4 82
2017-11-23 17:00:00 18.4 9 Sudoeste 15 Sudoeste 0 1017.6 0 73
2017-11-23 16:00:00 18.7 9 Sudoeste 17 Sudoeste 0 1017.3 -0.6 70
2017-11-23 15:00:00 19 10 Sudoeste 15 Sur 0 1017.5 -0.7 70
2017-11-23 14:00:00 18.8 6 Sur 13 Sur 0 1017.6 -0.5 68
2017-11-23 13:00:00 18.5 6 Sur 13 Sur 0 1017.9 0.3 65
2017-11-23 12:00:00 18.4 3 Sur 8 Sur 0 1018.2 1.3 57
2017-11-23 11:00:00 17.9 4 Sur 11 Noroeste 0 1018.1 1.8 48
2017-11-23 10:00:00 15.9 7 Noroeste 18 Noroeste 0 1017.6 2.3 31
2017-11-23 09:00:00 12.6 10 Noroeste 18 Noroeste 0 1016.9 2 37
2017-11-23 08:00:00 9.9 5 Noroeste 11 Noroeste 0 1016.3 1.8 47
2017-11-23 07:00:00 11.3 12 Noroeste 22 Noroeste 0 1015.3 0.9 41
2017-11-23 06:00:00 11.3 14 Noroeste 22 Noroeste 0 1014.9 0.6 43
2017-11-23 05:00:00 10.8 14 Noroeste 21 Noroeste 0 1014.5 0.4 50
2017-11-23 04:00:00 11 11 Norte 18 Noroeste 0 1014.4 0.1 56
2017-11-23 03:00:00 11.2 13 Noroeste 22 Norte 0 1014.3 -0.1 54
2017-11-23 02:00:00 11.3 17 Noroeste 24 Noroeste 0 1014.1 -0.3 58
2017-11-23 01:00:00 11.4 6 Norte 21 Norte 0 1014.3 0.1 68
2017-11-23 00:00:00 12 12 Noroeste 18 Noroeste 0 1014.4 0.5 69
2017-11-22 23:00:00 11.9 11 Noroeste 17 Noroeste 0 1014.4 0.8 75
2017-11-22 22:00:00 11.4 6 Norte 8 Norte 0 1014.2 0.9 82
2017-11-22 21:00:00 11.9 4 Norte 8 Oeste 0 1013.9 0.8 82
2017-11-22 20:00:00 12.8 5 Noroeste 11 Norte 0 1013.6 0.5 82
2017-11-22 19:00:00 14.4 0 Calma 8 Noroeste 0 1013.3 0.1 82
2017-11-22 18:00:00 16.8 0 Calma 11 Sudoeste 0 1013.1 -0.1 73
2017-11-22 17:00:00 18.5 7 Sudoeste 15 Sudoeste 0 1013.1 -0.7 70
2017-11-22 16:00:00 19 7 Sudoeste 13 Sudoeste 0 1013.2 -1.4 69
2017-11-22 15:00:00 19.4 7 Sudoeste 15 Sur 0 1013.2 -2 62
2017-11-22 14:00:00 19.3 8 Sur 15 Sur 0 1013.8 -1.5 65
2017-11-22 13:00:00 19 5 Sur 17 Sudoeste 0 1014.6 -0.8 58
2017-11-22 12:00:00 18.6 14 Sudoeste 18 Sudoeste 0 1015.2 0.1 55
2017-11-22 11:00:00 18.7 5 Sur 9 Sudoeste 0 1015.3 0.7 30
2017-11-22 10:00:00 15.2 0 Calma 5 Sudoeste 0 1015.4 1 39
2017-11-22 09:00:00 11.6 5 Norte 28 Norte 0 1015.1 0.4 46
2017-11-22 08:00:00 12.8 20 Norte 33 Norte 0 1014.6 -0.4 37
2017-11-22 07:00:00 12 22 Norte 37 Norte 0 1014.4 -1.1 41
2017-11-22 06:00:00 10.2 12 Noroeste 18 Noroeste 0 1014.7 -1.1 50
2017-11-22 05:00:00 10.2 10 Norte 18 Norte 0 1015 -1.3 60
2017-11-22 04:00:00 9.5 0 Calma 17 Norte 0 1015.5 -1.6 67
2017-11-22 03:00:00 11.1 13 Norte 18 Norte 0 1015.8 -1.4 52
2017-11-22 02:00:00 12.4 9 Noroeste 22 Norte 0 1016.3 -0.7 46
2017-11-22 01:00:00 12.5 13 Noroeste 21 Noroeste 0 1017.1 -0.1 48
2017-11-22 00:00:00 12.2 2 Nordeste 22 Norte 0 1017.2 -0.4 54
2017-11-21 23:00:00 14.5 17 Norte 26 Norte 0 1017 -0.5 47
2017-11-21 22:00:00 12.1 5 Noroeste 11 Norte 0 1017.2 -0.2 66
2017-11-21 21:00:00 13.3 5 Norte 11 Norte 0 1017.6 0.3 62
2017-11-21 20:00:00 13.2 6 Norte 11 Norte 0 1017.5 0.1 80
2017-11-21 19:00:00 15 5 Norte 5 Norte 0 1017.4 0 85
2017-11-21 18:00:00 17.5 2 Oeste 5 Sudoeste 0 1017.3 -0.6 79
2017-11-21 17:00:00 19.5 2 Sur 9 Sur 0 1017.4 -1.2 71
2017-11-21 16:00:00 19.9 3 Sudoeste 13 Sur 0 1017.4 -2 71
2017-11-21 15:00:00 19.6 6 Sur 13 Sur 0 1017.9 -2.4 69
2017-11-21 14:00:00 19.6 8 Sudoeste 17 Sudoeste 0 1018.6 -1.6 69
2017-11-21 13:00:00 19.5 8 Sudoeste 17 Sudoeste 0 1019.4 -0.5 56
2017-11-21 12:00:00 19.1 5 Sur 13 Sur 0 1020.3 0.7 43
2017-11-21 11:00:00 19.1 8 Sur 13 Sur 0 1020.2 0.9 41
2017-11-21 10:00:00 17.5 6 Noroeste 15 Noroeste 0 1019.9 0.9 32
2017-11-21 09:00:00 14 13 Norte 26 Norte 0 1019.6 0.4 39
2017-11-21 08:00:00 12.8 22 Norte 32 Norte 0 1019.3 -0.3 38
2017-11-21 07:00:00 12.5 11 Norte 30 Norte 0 1019 -0.9 42
2017-11-21 06:00:00 12.1 10 Norte 22 Norte 0 1019.2 -1.2 48
2017-11-21 05:00:00 11.3 13 Noroeste 21 Norte 0 1019.6 -0.7 51
2017-11-21 04:00:00 11.9 14 Norte 24 Norte 0 1019.9 -0.3 50
2017-11-21 03:00:00 10.9 13 Noroeste 18 Noroeste 0 1020.4 0.3 55
2017-11-21 02:00:00 11 9 Noroeste 15 Noroeste 0 1020.3 0.3 55
2017-11-21 01:00:00 13.8 8 Norte 26 Norte 0 1020.2 -0.1 42
2017-11-21 00:00:00 14.4 18 Norte 28 Noroeste 0 1020.1 -0.1 43
2017-11-20 23:00:00 14.8 17 Norte 22 Norte 0 1020 -0.3 45
2017-11-20 22:00:00 13.6 0 Calma 11 Norte 0 1020.3 0.6 54
2017-11-20 21:00:00 12.6 0 Calma 13 Norte 0 1020.2 0.7 77
2017-11-20 20:00:00 13.8 8 Noroeste -- -- 0 1020.3 0.8 84
2017-11-20 19:00:00 15.4 4 Noroeste 11 Oeste 0 1019.7 0.2 79
2017-11-20 18:00:00 18.4 2 Oeste 5 Oeste 0 1019.5 -0.2 74
2017-11-20 17:00:00 20.5 3 Sur 11 Sudoeste 0 1019.5 -0.8 65
2017-11-20 16:00:00 21 6 Sur 15 Sur 0 1019.5 -1.4 60
2017-11-20 15:00:00 21.1 8 Sur 18 Sudoeste 0 1019.7 -1.6 61
2017-11-20 14:00:00 20.5 14 Sudoeste 21 Sudoeste 0 1020.3 -1.2 65
2017-11-20 13:00:00 21 14 Sudoeste 18 Sudoeste 0 1020.9 -0.3 65
2017-11-20 12:00:00 21.9 13 Este 22 Este 0 1021.3 0.5 42
2017-11-20 11:00:00 20.3 15 Este 22 Este 0 1021.5 1 51
2017-11-20 10:00:00 17.4 0 Calma 15 Noroeste 0 1021.2 1.1 45
2017-11-20 09:00:00 13 12 Norte 22 Noroeste 0 1020.8 1.1 51
2017-11-20 08:00:00 9.7 12 Norte 17 Norte 0 1020.5 0.9 73
2017-11-20 07:00:00 10.4 12 Noroeste 17 Noroeste 0 1020.1 0.5 69
2017-11-20 06:00:00 10.1 11 Norte 18 Noroeste 0 1019.7 -0.2 72
2017-11-20 05:00:00 10 11 Norte 17 Norte 0 1019.6 -0.4 78
2017-11-20 04:00:00 11.3 14 Norte 18 Noroeste 0 1019.6 -0.5 71
2017-11-20 03:00:00 11.5 12 Noroeste 18 Noroeste 0 1019.9 -0.4 73
2017-11-20 02:00:00 12 13 Norte 18 Norte 0 1020 -0.1 75
2017-11-20 01:00:00 11.6 8 Norte 15 Norte 0 1020.1 0.3 83
2017-11-20 00:00:00 12.6 3 Norte 11 Noroeste 0 1020.3 0.9 79
2017-11-19 23:00:00 13.4 5 Norte 17 Noroeste 0 1020.1 1 82
2017-11-19 22:00:00 14 8 Norte 17 Nordeste 0 1019.8 1.2 81
2017-11-19 21:00:00 15.3 8 Norte 18 Nordeste 0 1019.4 1.2 83
2017-11-19 20:00:00 15.5 9 Norte 18 Nordeste 0 1019.1 1.2 82
2017-11-19 19:00:00 16.4 5 Nordeste 17 Este 0 1018.6 1.1 78
2017-11-19 18:00:00 18.2 10 Este 21 Sudeste 0 1018.2 0.8 68
2017-11-19 17:00:00 20.6 17 Sudeste 24 Sudeste 0 1017.9 0 59
2017-11-19 16:00:00 21.5 13 Sudeste 24 Este 0 1017.5 -1.2 58
2017-11-19 15:00:00 22.2 17 Este 26 Este 0 1017.4 -2.1 47
2017-11-19 14:00:00 22.1 15 Este 28 Nordeste 0 1017.9 -1.8 50
2017-11-19 13:00:00 21.5 16 Este 28 Nordeste 0 1018.7 -0.8 51
2017-11-19 12:00:00 20.6 18 Este 28 Este 0 1019.5 0.5 57
2017-11-19 11:00:00 19.8 20 Este 28 Este 0 1019.7 1.2 58
2017-11-19 10:00:00 16 12 Norte 26 Norte 0 1019.5 1.8 56
2017-11-19 09:00:00 12.5 17 Norte 28 Noroeste 0 1019 1.3 65
2017-11-19 08:00:00 11.8 21 Noroeste 32 Noroeste 0 1018.5 0.8 69
2017-11-19 07:00:00 11.7 20 Noroeste 28 Noroeste 0 1017.7 -0.1 69
2017-11-19 06:00:00 12.2 18 Norte 26 Noroeste 0 1017.7 -0.2 70
2017-11-19 05:00:00 11.8 16 Norte 24 Noroeste 0 1017.7 0.1 70
2017-11-19 04:00:00 11.8 17 Norte 22 Noroeste 0 1017.8 -0.2 73
2017-11-19 03:00:00 11.9 13 Norte 18 Norte 0 1017.9 0 81
2017-11-19 02:00:00 12.5 13 Norte 21 Noroeste 0 1017.6 -0.2 78
2017-11-19 01:00:00 12.3 10 Norte 17 Norte 0 1018 0.2 86
2017-11-19 00:00:00 12.1 6 Norte 17 Norte 0 1017.9 0.4 88
2017-11-18 23:00:00 13.3 13 Norte 18 Norte 0 1017.8 0.5 83
2017-11-18 22:00:00 13.7 12 Norte 15 Norte 0 1017.8 0.9 84
2017-11-18 21:00:00 14 9 Norte 15 Norte 0 1017.5 0.9 84
2017-11-18 20:00:00 14.2 6 Norte 11 Norte 0 1017.3 0.8 84
2017-11-18 19:00:00 15.5 0 Calma 5 Norte 0 1016.9 0.7 79
2017-11-18 18:00:00 17.6 0 Calma 8 Sudoeste 0 1016.6 0.1 71
2017-11-18 17:00:00 18.9 6 Sur 13 Sur 0 1016.5 -0.5 67
2017-11-18 16:00:00 19.3 6 Sudoeste 15 Sudoeste 0 1016.2 -1.1 66
2017-11-18 15:00:00 19.6 10 Sur 18 Sur 0 1016.5 -1.2 66
2017-11-18 14:00:00 19.5 12 Sur 18 Sudoeste 0 1017 -0.9 69
2017-11-18 13:00:00 19.4 14 Sur 18 Sur 0 1017.3 -0.6 67
2017-11-18 12:00:00 19.2 7 Sur 13 Sur 0 1017.7 0.1 65
2017-11-18 11:00:00 18.6 4 Sur 8 Sudeste 0 1017.9 0.5 65
2017-11-18 10:00:00 15.6 6 Noroeste 32 Noroeste 0 1017.9 0.7 62
2017-11-18 09:00:00 12.4 18 Noroeste 24 Noroeste 0 1017.6 0.5 65
2017-11-18 08:00:00 10.9 16 Noroeste 22 Noroeste 0 1017.4 0.3 77
2017-11-18 07:00:00 11 15 Noroeste 21 Noroeste 0 1017.2 -0.1 80
2017-11-18 06:00:00 11.7 16 Noroeste 22 Noroeste 0 1017.1 -0.2 77
2017-11-18 05:00:00 10.5 6 Norte 9 Norte 0 1017.1 -0.1 90
2017-11-18 04:00:00 11.9 9 Norte 21 Norte 0 1017.3 -0.2 85
2017-11-18 03:00:00 12 11 Noroeste 15 Noroeste 0 1017.3 -0.3 80
2017-11-18 02:00:00 11.4 3 Norte 13 Noroeste 0 1017.2 -0.6 88
2017-11-18 01:00:00 12.3 11 Norte 17 Norte 0 1017.5 -0.1 83
2017-11-18 00:00:00 12.9 14 Norte 18 Norte 0 1017.6 0.2 81
2017-11-17 23:00:00 13.4 11 Noroeste 22 Noroeste 0 1017.8 0.4 80
2017-11-17 22:00:00 13.7 12 Norte 22 Noroeste 0 1017.6 0.5 83
2017-11-17 21:00:00 -- 8 Norte 11 Norte 0 1017.4 0.6 --
2017-11-17 20:00:00 14.4 7 Norte 30 Noroeste 0 1017.4 0.9 81
2017-11-17 19:00:00 15.6 0 Calma 8 Sur 0 1017.1 0.5 76
2017-11-17 18:00:00 17.4 4 Sur 11 Sur 0 1016.8 -0.1 70
2017-11-17 17:00:00 18.8 5 Sur 13 Sudoeste 0 1016.5 -0.8 67
2017-11-17 16:00:00 19.2 7 Sur 15 Sur 0 1016.6 -1.2 66
2017-11-17 15:00:00 19.4 11 Sur 17 Sur 0 1016.9 -1.7 63
2017-11-17 14:00:00 19.7 12 Sur 18 Sudoeste 0 1017.3 -1.4 60
2017-11-17 13:00:00 19.5 10 Sudoeste 15 Sur 0 1017.8 -1 59
2017-11-17 12:00:00 19 7 Sur 13 Sur 0 1018.6 0.1 57
2017-11-17 11:00:00 18.2 0 Calma 18 Noroeste 0 1018.7 0.5 56
2017-11-17 10:00:00 14.9 15 Noroeste 24 Noroeste 0 1018.8 1 59
2017-11-17 09:00:00 12.3 17 Noroeste 22 Noroeste 0 1018.5 0.7 70
2017-11-17 08:00:00 11.7 15 Noroeste 26 Noroeste 0 1018.2 0.5 73
2017-11-17 07:00:00 10.9 15 Noroeste 21 Noroeste 0 1017.8 -0.1 81
2017-11-17 06:00:00 11.2 14 Noroeste 18 Noroeste 0 1017.8 -0.3 81
2017-11-17 05:00:00 11.3 13 Norte 18 Norte 0 1017.7 -0.3 81
2017-11-17 04:00:00 11.2 15 Noroeste 22 Noroeste 0 1017.9 -0.6 76
2017-11-17 03:00:00 11.2 13 Noroeste 18 Noroeste 0 1018.1 -0.6 79
2017-11-17 02:00:00 12.3 13 Noroeste 22 Norte 0 1018 -0.5 76
2017-11-17 01:00:00 12.3 15 Norte 24 Norte 0 1018.5 0.2 77
2017-11-17 00:00:00 12.5 17 Norte 24 Noroeste 0 1018.7 0.5 76
2017-11-16 23:00:00 13.1 15 Noroeste 21 Norte 0 1018.5 0.6 75
2017-11-16 22:00:00 12.5 13 Norte 17 Norte 0 1018.3 0.8 82
2017-11-16 21:00:00 13.4 8 Norte 11 Norte 0 1018.2 1.2 77
2017-11-16 20:00:00 13.8 7 Norte 8 Norte 0 1017.9 1.2 75
2017-11-16 19:00:00 15.3 0 Calma 5 Sur 0 1017.5 1 72
2017-11-16 18:00:00 17.2 2 Sur 11 Sudoeste 0 1017 0.4 65
2017-11-16 17:00:00 18.6 6 Sudoeste 13 Sudoeste 0 1016.7 -0.1 60
2017-11-16 16:00:00 19 8 Sur 15 Sudoeste 0 1016.5 -0.9 59
2017-11-16 15:00:00 19.2 10 Sur 17 Sudoeste 0 1016.6 -1.4 59
2017-11-16 14:00:00 19 11 Sudoeste 17 Sudoeste 0 1016.8 -1.5 58
2017-11-16 13:00:00 18.6 11 Sudoeste 17 Sudoeste 0 1017.4 -0.8 58
2017-11-16 12:00:00 18.7 6 Sudoeste 13 Sudoeste 0 1018 0.3 55
2017-11-16 11:00:00 18.1 0 Calma 17 Oeste 0 1018.3 1.2 44
2017-11-16 10:00:00 14.7 7 Noroeste 17 Norte 0 1018.2 1.6 54
2017-11-16 09:00:00 12 9 Noroeste 24 Norte 0 1017.7 1.2 65
2017-11-16 08:00:00 10.5 17 Norte 30 Norte 0 1017.1 0.7 64
2017-11-16 07:00:00 10.5 19 Noroeste 26 Noroeste 0 1016.6 0.1 69
2017-11-16 06:00:00 10.9 13 Noroeste 18 Noroeste 0 1016.5 -0.1 76
2017-11-16 05:00:00 10.1 4 Norte 11 Norte 0 1016.4 -0.2 85
2017-11-16 04:00:00 10.4 5 Norte 11 Norte 0 1016.5 -0.3 79
2017-11-16 03:00:00 11.3 9 Norte 15 Norte 0 1016.6 -0.2 75
2017-11-16 02:00:00 11.8 12 Norte 22 Norte 0 1016.6 -0.4 73
2017-11-16 01:00:00 12.4 17 Noroeste 26 Noroeste 0 1016.8 -0.1 68
2017-11-16 00:00:00 12.2 17 Norte 24 Norte 0 1016.8 0 71
2017-11-15 23:00:00 12.6 14 Noroeste 18 Norte 0 1017 0.4 72
2017-11-15 22:00:00 12.6 13 Noroeste 18 Noroeste 0 1016.9 0.6 75
2017-11-15 21:00:00 13 8 Norte 11 Norte 0 1016.8 0.8 75
2017-11-15 20:00:00 13.8 6 Norte 8 Norte 0 1016.6 0.7 71
2017-11-15 19:00:00 15.4 0 Calma 11 Sur 0 1016.3 0.4 65
2017-11-15 18:00:00 17 6 Sur 13 Sur 0 1016 -0.2 60
2017-11-15 17:00:00 18.6 8 Sur 17 Sur 0 1015.9 -1 53
2017-11-15 16:00:00 19.1 10 Sur 18 Sur 0 1015.9 -1.7 51
2017-11-15 15:00:00 19.7 13 Sur 17 Sur 0 1016.2 -2.3 51
2017-11-15 14:00:00 19.8 12 Sur 18 Sur 0 1016.9 -2 49
2017-11-15 13:00:00 19.5 12 Sur 17 Sur 0 1017.6 -1.3 50
2017-11-15 12:00:00 19.4 8 Sur 15 Sur 0 1018.5 -0.3 47
2017-11-15 11:00:00 18.1 6 Noroeste 28 Noroeste 0 1018.9 0.4 45
2017-11-15 10:00:00 14.9 19 Noroeste 32 Noroeste 0 1018.9 0.8 47
2017-11-15 09:00:00 11.8 24 Noroeste 37 Noroeste 0 1018.8 0.9 51
2017-11-15 08:00:00 10.6 25 Noroeste 35 Norte 0 1018.5 0.7 53
2017-11-15 07:00:00 11.2 24 Noroeste 37 Norte 0 1018.1 0.1 51
2017-11-15 06:00:00 10.6 24 Noroeste 37 Noroeste 0 1017.9 -0.2 51
2017-11-15 05:00:00 10.7 25 Noroeste 41 Noroeste 0 1017.8 -0.3 54
2017-11-15 04:00:00 11 28 Noroeste 37 Noroeste 0 1018 -0.2 56
2017-11-15 03:00:00 11.6 26 Noroeste 39 Noroeste 0 1018.1 -0.2 55
2017-11-15 02:00:00 11.7 24 Noroeste 35 Noroeste 0 1018.1 0 58
2017-11-15 01:00:00 12.1 21 Noroeste 32 Noroeste 0 1018.2 0.5 54
2017-11-15 00:00:00 12.6 19 Noroeste 28 Norte 0 1018.3 1.3 53